createdAt,value
2019-04-05T00:00:09.471Z,14.83
2019-04-05T00:02:38.973Z,14.63
2019-04-05T00:05:08.541Z,16.50
2019-04-05T00:07:37.953Z,16.57
2019-04-05T00:10:07.903Z,16.97
2019-04-05T00:12:37.293Z,16.63
2019-04-05T00:15:15.216Z,16.33
2019-04-05T00:17:38.755Z,18.47
2019-04-05T00:20:09.040Z,19.20
2019-04-05T00:22:38.438Z,19.03
2019-04-05T00:25:08.099Z,18.73
2019-04-05T00:27:37.571Z,19.03
2019-04-05T00:30:08.721Z,17.47
2019-04-05T00:32:38.155Z,16.90
2019-04-05T00:35:08.595Z,16.83
2019-04-05T00:37:38.002Z,15.80
2019-04-05T00:40:09.911Z,16.27
2019-04-05T00:42:39.318Z,15.63
2019-04-05T00:45:09.266Z,15.80
2019-04-05T00:47:38.752Z,16.90
2019-04-05T00:50:08.953Z,15.70
2019-04-05T00:52:38.391Z,14.97
2019-04-05T00:55:08.950Z,14.70
2019-04-05T00:57:38.362Z,15.57
2019-04-05T01:00:08.225Z,16.07
2019-04-05T01:02:37.725Z,12.83
2019-04-05T01:05:08.288Z,14.37
2019-04-05T01:07:37.819Z,15.87
2019-04-05T01:10:07.988Z,14.77
2019-04-05T01:12:39.397Z,13.93
2019-04-05T01:15:10.897Z,15.93
2019-04-05T01:17:40.469Z,16.20
2019-04-05T01:20:10.729Z,18.53
2019-04-05T01:22:41.498Z,16.40
2019-04-05T01:25:11.088Z,18.40
2019-04-05T01:27:41.527Z,17.70
2019-04-05T01:30:17.240Z,18.17
2019-04-05T01:32:47.312Z,19.90
2019-04-05T01:35:16.799Z,16.03
2019-04-05T01:37:46.835Z,16.17
2019-04-05T01:40:16.520Z,15.03
2019-04-05T01:42:46.698Z,17.27
2019-04-05T01:45:16.134Z,16.70
2019-04-05T01:47:45.528Z,14.97
2019-04-05T01:50:16.191Z,15.43
2019-04-05T01:52:46.331Z,16.30
2019-04-05T01:55:15.800Z,13.97
2019-04-05T01:57:45.192Z,14.20
2019-04-05T02:00:14.954Z,14.33
2019-04-05T02:02:44.417Z,13.53
2019-04-05T02:05:14.246Z,14.77
2019-04-05T02:07:43.804Z,17.40
2019-04-05T02:10:13.963Z,14.83
2019-04-05T02:12:43.374Z,15.30
2019-04-05T02:15:18.575Z,17.97
2019-04-05T02:17:48.047Z,19.13
2019-04-05T02:20:17.661Z,17.90
2019-04-05T02:22:47.076Z,20.20
2019-04-05T02:25:16.467Z,19.03
2019-04-05T02:27:45.881Z,18.73
2019-04-05T02:30:15.830Z,17.27
2019-04-05T02:32:45.416Z,15.97
2019-04-05T02:35:14.925Z,13.67
2019-04-05T02:37:44.573Z,14.43
2019-04-05T02:40:16.363Z,14.13
2019-04-05T02:42:47.722Z,17.10
2019-04-05T02:45:18.984Z,16.80
2019-04-05T02:47:57.414Z,16.33
2019-04-05T02:50:29.864Z,17.43
2019-04-05T02:53:02.345Z,17.63
2019-04-05T02:55:32.788Z,17.60
2019-04-05T02:58:03.516Z,15.70
2019-04-05T03:00:34.018Z,14.83
2019-04-05T03:03:05.540Z,14.40
2019-04-05T03:05:36.387Z,14.03
2019-04-05T03:08:06.751Z,15.03
2019-04-05T03:10:47.850Z,17.53
2019-04-05T03:13:17.409Z,14.87
2019-04-05T03:15:47.052Z,15.47
2019-04-05T03:18:16.815Z,17.13
2019-04-05T03:20:46.442Z,17.63
2019-04-05T03:23:15.947Z,16.63
2019-04-05T03:25:48.178Z,16.97
2019-04-05T03:28:18.307Z,14.53
2019-04-05T03:30:48.252Z,17.00
2019-04-05T03:33:17.836Z,16.63
2019-04-05T03:35:47.302Z,19.57
2019-04-05T03:38:17.761Z,16.00
2019-04-05T03:40:48.589Z,15.03
2019-04-05T03:43:18.260Z,15.10
2019-04-05T03:45:47.737Z,17.07
2019-04-05T03:48:17.592Z,16.53
2019-04-05T03:50:47.324Z,14.97
2019-04-05T03:53:16.986Z,17.43
2019-04-05T03:55:46.451Z,16.23
2019-04-05T03:58:16.039Z,17.45
2019-04-05T04:00:45.711Z,18.17
2019-04-05T04:03:15.316Z,20.90
2019-04-05T04:05:45.032Z,19.30
2019-04-05T04:08:14.707Z,18.40
2019-04-05T04:10:44.198Z,17.17
2019-04-05T04:13:13.862Z,19.60
2019-04-05T04:15:43.511Z,18.67
2019-04-05T04:18:13.032Z,18.70
2019-04-05T04:20:48.636Z,17.37
2019-04-05T04:23:20.627Z,19.30
2019-04-05T04:25:51.481Z,17.80
2019-04-05T04:28:21.440Z,19.20
2019-04-05T04:30:51.095Z,19.93
2019-04-05T04:33:20.828Z,20.87
2019-04-05T04:35:51.270Z,23.20
2019-04-05T04:38:20.763Z,21.93
2019-04-05T04:40:50.402Z,23.27
2019-04-05T04:43:20.863Z,24.23
2019-04-05T04:45:50.590Z,20.87
2019-04-05T04:48:20.037Z,21.60
2019-04-05T04:50:49.673Z,21.33
2019-04-05T04:53:19.626Z,20.30
2019-04-05T04:55:49.269Z,20.77
2019-04-05T04:58:19.229Z,20.00
2019-04-05T05:00:48.810Z,21.57
2019-04-05T05:03:18.668Z,18.17
2019-04-05T05:05:48.333Z,17.47
2019-04-05T05:08:18.396Z,19.07
2019-04-05T05:10:48.343Z,21.70
2019-04-05T05:13:18.007Z,19.43
2019-04-05T05:15:47.744Z,27.43
2019-04-05T05:18:17.409Z,26.40
2019-04-05T05:20:46.881Z,29.00
2019-04-05T05:23:16.447Z,32.40
2019-04-05T05:25:47.025Z,68.90
2019-04-05T05:28:16.977Z,45.60
2019-04-05T05:30:46.616Z,30.17
2019-04-05T05:33:16.112Z,23.43
2019-04-05T05:35:45.689Z,24.17
2019-04-05T05:38:15.352Z,27.87
2019-04-05T05:40:44.758Z,29.20
2019-04-05T05:43:14.164Z,28.23
2019-04-05T05:45:43.572Z,21.70
2019-04-05T05:48:13.391Z,43.80
2019-04-05T05:50:43.784Z,71.27
2019-04-05T05:53:13.558Z,30.97
2019-04-05T05:55:42.981Z,25.43
2019-04-05T05:58:12.398Z,31.63
2019-04-05T06:00:41.810Z,21.57
2019-04-05T06:03:12.061Z,25.90
2019-04-05T06:05:43.347Z,38.90
2019-04-05T06:08:12.859Z,28.50
2019-04-05T06:10:42.261Z,24.40
2019-04-05T06:13:11.660Z,27.67
2019-04-05T06:15:41.095Z,28.87
2019-04-05T06:18:12.681Z,44.03
2019-04-05T06:20:42.545Z,114.17
2019-04-05T06:23:11.975Z,50.20
2019-04-05T06:25:41.386Z,81.07
2019-04-05T06:28:10.885Z,18.00
2019-04-05T06:30:40.279Z,22.47
2019-04-05T06:33:09.709Z,22.07
2019-04-05T06:35:39.117Z,23.60
2019-04-05T06:38:08.535Z,21.50
2019-04-05T06:40:40.973Z,24.73
2019-04-05T06:43:09.050Z,34.53
2019-04-05T06:45:38.445Z,20.23
2019-04-05T06:48:18.568Z,19.03
2019-04-05T06:50:38.983Z,22.43
2019-04-05T06:53:08.409Z,20.57
2019-04-05T06:55:37.815Z,25.07
2019-04-05T06:58:10.236Z,45.03
2019-04-05T07:00:38.408Z,47.40
2019-04-05T07:03:07.829Z,22.20
2019-04-05T07:05:37.232Z,42.07
2019-04-05T07:08:06.651Z,26.07
2019-04-05T07:10:36.055Z,50.53
2019-04-05T07:13:05.780Z,26.40
2019-04-05T07:15:35.230Z,25.73
2019-04-05T07:18:04.833Z,26.27
2019-04-05T07:20:34.235Z,34.40
2019-04-05T07:23:03.632Z,37.07
2019-04-05T07:25:33.216Z,27.27
2019-04-05T07:28:02.634Z,26.37
2019-04-05T07:30:32.758Z,22.07
2019-04-05T07:33:02.239Z,25.93
2019-04-05T07:35:33.709Z,25.03
2019-04-05T07:38:03.479Z,27.93
2019-04-05T07:40:32.902Z,22.57
2019-04-05T07:43:02.290Z,24.33
2019-04-05T07:45:31.730Z,22.07
2019-04-05T07:48:01.244Z,29.17
2019-04-05T07:50:30.700Z,21.13
2019-04-05T07:53:00.111Z,22.63
2019-04-05T07:55:29.534Z,21.57
2019-04-05T07:57:58.932Z,22.80
2019-04-05T08:00:43.667Z,19.60
2019-04-05T08:03:13.140Z,24.83
2019-04-05T08:05:42.999Z,16.93
2019-04-05T08:08:15.453Z,24.70
2019-04-05T08:10:45.758Z,28.60
2019-04-05T08:13:17.064Z,24.63
2019-04-05T08:15:46.496Z,24.60
2019-04-05T08:18:15.900Z,21.73
2019-04-05T08:20:45.319Z,21.37
2019-04-05T08:23:14.724Z,22.03
2019-04-05T08:25:44.153Z,20.93
2019-04-05T08:28:13.563Z,17.20
2019-04-05T08:30:43.087Z,21.87
2019-04-05T08:33:12.516Z,18.97
2019-04-05T08:35:42.111Z,20.37
2019-04-05T08:38:11.582Z,19.80
2019-04-05T08:40:41.013Z,17.57
2019-04-05T08:43:10.497Z,19.87
2019-04-05T08:45:40.019Z,17.10
2019-04-05T08:48:09.596Z,15.80
2019-04-05T08:50:39.033Z,16.20
2019-04-05T08:53:08.453Z,16.87
2019-04-05T08:55:37.936Z,16.03
2019-04-05T08:58:07.332Z,14.00
2019-04-05T09:00:36.769Z,14.67
2019-04-05T09:03:06.243Z,14.73
2019-04-05T09:05:35.746Z,15.80
2019-04-05T09:08:05.225Z,13.73
2019-04-05T09:10:34.827Z,15.53
2019-04-05T09:13:04.234Z,11.87
2019-04-05T09:15:33.666Z,14.20
2019-04-05T09:18:03.147Z,12.10
2019-04-05T09:20:32.565Z,12.07
2019-04-05T09:23:02.109Z,11.00
2019-04-05T09:25:31.581Z,15.33
2019-04-05T09:28:00.996Z,14.03
2019-04-05T09:30:30.436Z,12.20
2019-04-05T09:32:59.857Z,15.87
2019-04-05T09:35:29.278Z,15.33
2019-04-05T09:37:58.703Z,14.17
2019-04-05T09:40:28.146Z,15.93
2019-04-05T09:42:57.528Z,14.10
2019-04-05T09:45:26.951Z,13.97
2019-04-05T09:47:56.360Z,16.03
2019-04-05T09:50:25.801Z,14.97
2019-04-05T09:52:55.280Z,16.77
2019-04-05T09:55:24.709Z,16.10
2019-04-05T09:57:54.116Z,14.43
2019-04-05T10:00:25.341Z,14.17
2019-04-05T10:02:54.835Z,14.47
2019-04-05T10:05:24.262Z,14.97
2019-04-05T10:07:55.398Z,14.07
2019-04-05T10:10:24.778Z,11.77
2019-04-05T10:12:54.260Z,12.57
2019-04-05T10:15:23.696Z,12.98
2019-04-05T10:17:53.298Z,11.05
2019-04-05T10:20:22.718Z,12.20
2019-04-05T10:22:52.122Z,10.93
2019-04-05T10:25:21.554Z,12.82
2019-04-05T10:27:50.961Z,8.93
2019-04-05T10:30:20.704Z,9.98
2019-04-05T10:32:50.110Z,10.82
2019-04-05T10:35:19.558Z,11.00
2019-04-05T10:37:48.958Z,10.40
2019-04-05T10:40:18.612Z,9.40
2019-04-05T10:42:48.017Z,9.67
2019-04-05T10:45:17.603Z,9.10
2019-04-05T10:47:47.068Z,9.57
2019-04-05T10:50:17.028Z,10.13
2019-04-05T10:52:46.453Z,12.10
2019-04-05T10:55:16.103Z,12.70
2019-04-05T10:57:45.887Z,11.20
2019-04-05T11:00:17.357Z,14.10
2019-04-05T11:02:46.763Z,14.67
2019-04-05T11:05:16.548Z,16.67
2019-04-05T11:07:45.976Z,13.63
2019-04-05T11:10:17.497Z,14.10
2019-04-05T11:12:49.736Z,12.33
2019-04-05T11:15:18.379Z,10.03
2019-04-05T11:17:47.888Z,10.93
2019-04-05T11:20:21.946Z,10.87
2019-04-05T11:22:50.162Z,11.80
2019-04-05T11:25:20.982Z,10.13
2019-04-05T11:27:50.674Z,9.07
2019-04-05T11:30:39.895Z,7.67
2019-04-05T11:33:09.511Z,8.10
2019-04-05T11:35:39.313Z,8.03
2019-04-05T11:38:08.769Z,7.80
2019-04-05T11:40:38.909Z,8.40
2019-04-05T11:43:08.317Z,9.47
2019-04-05T11:45:37.785Z,7.73
2019-04-05T11:48:08.135Z,7.57
2019-04-05T11:51:11.776Z,7.03
2019-04-05T11:53:41.237Z,5.53
2019-04-05T11:56:15.009Z,4.67
2019-04-05T11:58:43.400Z,3.77
2019-04-05T12:01:26.771Z,3.80
2019-04-05T12:03:56.158Z,5.83
2019-04-05T12:06:25.570Z,8.13
2019-04-05T12:08:59.315Z,5.97
2019-04-05T12:11:28.595Z,6.93
2019-04-05T12:13:58.028Z,7.10
2019-04-05T12:16:27.428Z,7.77
2019-04-05T12:18:58.894Z,9.60
2019-04-05T12:21:27.929Z,9.27
2019-04-05T12:23:57.318Z,7.77
2019-04-05T12:26:26.744Z,10.20
2019-04-05T12:28:56.155Z,34.50
2019-04-05T12:31:26.646Z,6.97
2019-04-05T12:33:56.061Z,7.17
2019-04-05T12:36:25.476Z,7.07
2019-04-05T12:38:54.886Z,7.43
2019-04-05T12:41:24.294Z,8.57
2019-04-05T12:43:53.703Z,7.20
2019-04-05T12:46:23.269Z,7.57
2019-04-05T12:48:52.673Z,8.63
2019-04-05T12:51:22.078Z,7.77
2019-04-05T12:53:51.493Z,8.67
2019-04-05T12:56:20.988Z,9.50
2019-04-05T12:58:50.433Z,10.20
2019-04-05T13:01:19.818Z,10.67
2019-04-05T13:03:51.141Z,10.93
2019-04-05T13:06:21.752Z,12.03
2019-04-05T13:08:51.642Z,11.30
2019-04-05T13:11:25.935Z,9.73
2019-04-05T13:13:54.385Z,11.43
2019-04-05T13:16:24.783Z,13.60
2019-04-05T13:18:54.307Z,15.07
2019-04-05T13:21:27.397Z,20.83
2019-04-05T13:23:54.866Z,10.50
2019-04-05T13:26:26.396Z,11.83
2019-04-05T13:28:55.409Z,9.00
2019-04-05T13:31:24.813Z,14.20
2019-04-05T13:33:55.174Z,10.77
2019-04-05T13:36:24.988Z,9.27
2019-04-05T13:38:55.295Z,10.23
2019-04-05T13:41:24.847Z,10.57
2019-04-05T13:43:54.285Z,8.20
2019-04-05T13:46:26.135Z,8.93
2019-04-05T13:48:54.812Z,10.97
2019-04-05T13:51:28.244Z,9.20
2019-04-05T13:53:55.335Z,8.33
2019-04-05T13:56:24.730Z,9.73
2019-04-05T13:58:54.164Z,9.07
2019-04-05T14:01:23.559Z,10.20
2019-04-05T14:03:52.978Z,9.60
2019-04-05T14:06:22.371Z,8.50
2019-04-05T14:08:51.784Z,7.70
2019-04-05T14:11:21.184Z,9.43
2019-04-05T14:13:50.620Z,8.40
2019-04-05T14:16:20.064Z,9.13
2019-04-05T14:18:49.932Z,10.43
2019-04-05T14:21:22.247Z,9.77
2019-04-05T14:23:51.317Z,9.03
2019-04-05T14:26:21.696Z,9.80
2019-04-05T14:28:52.969Z,9.77
2019-04-05T14:31:22.218Z,9.53
2019-04-05T14:33:53.965Z,9.37
2019-04-05T14:36:29.436Z,12.43
2019-04-05T14:38:59.286Z,9.57
2019-04-05T14:41:28.652Z,10.73
2019-04-05T14:43:58.086Z,11.13
2019-04-05T14:46:28.982Z,11.77
2019-04-05T14:49:00.732Z,13.63
2019-04-05T14:51:29.736Z,12.27
2019-04-05T14:53:59.603Z,11.80
2019-04-05T14:56:30.259Z,12.10
2019-04-05T14:58:59.682Z,12.27
2019-04-05T15:01:29.174Z,13.27
2019-04-05T15:04:00.231Z,13.80
2019-04-05T15:06:29.635Z,12.47
2019-04-05T15:09:01.916Z,12.27
2019-04-05T15:11:30.164Z,13.37
2019-04-05T15:13:59.567Z,12.60
2019-04-05T15:16:28.984Z,14.83
2019-04-05T15:18:58.428Z,12.47
2019-04-05T15:21:27.824Z,13.87
2019-04-05T15:23:57.225Z,12.77
2019-04-05T15:26:26.639Z,14.63
2019-04-05T15:28:56.065Z,13.40
2019-04-05T15:31:26.549Z,13.03
2019-04-05T15:33:58.398Z,14.10
2019-04-05T15:36:29.426Z,27.83
2019-04-05T15:39:01.113Z,19.17
2019-04-05T15:41:30.295Z,14.77
2019-04-05T15:43:59.701Z,20.17
2019-04-05T15:46:29.141Z,17.43
2019-04-05T15:48:58.551Z,17.27
2019-04-05T15:51:28.043Z,20.47
2019-04-05T15:53:59.510Z,17.43
2019-04-05T15:56:28.600Z,15.43
2019-04-05T15:59:03.646Z,24.63
2019-04-05T16:01:32.144Z,14.43
2019-04-05T16:04:03.447Z,20.23
2019-04-05T16:06:32.877Z,16.30
2019-04-05T16:09:02.291Z,15.87
2019-04-05T16:11:31.796Z,13.53
2019-04-05T16:14:01.198Z,12.97
2019-04-05T16:16:30.728Z,14.90
2019-04-05T16:19:00.142Z,14.57
2019-04-05T16:21:29.576Z,13.17
2019-04-05T16:23:58.973Z,12.97
2019-04-05T16:26:28.390Z,13.50
2019-04-05T16:28:57.793Z,13.57
2019-04-05T16:31:27.241Z,11.00
2019-04-05T16:33:56.800Z,12.70
2019-04-05T16:36:26.355Z,12.10
2019-04-05T16:38:58.885Z,15.23
2019-04-05T16:41:26.872Z,13.27
2019-04-05T16:43:56.270Z,12.83
2019-04-05T16:46:25.687Z,13.13
2019-04-05T16:48:55.096Z,16.97
2019-04-05T16:51:24.530Z,16.13
2019-04-05T16:54:00.535Z,13.10
2019-04-05T16:56:30.418Z,17.57
2019-04-05T16:58:59.891Z,13.77
2019-04-05T17:01:29.390Z,15.27
2019-04-05T17:03:58.804Z,16.60
2019-04-05T17:06:28.231Z,17.40
2019-04-05T17:08:57.623Z,17.03
2019-04-05T17:11:27.037Z,18.03
2019-04-05T17:13:59.381Z,16.77
2019-04-05T17:16:27.629Z,19.13
2019-04-05T17:18:57.034Z,18.57
2019-04-05T17:21:26.460Z,18.73
2019-04-05T17:23:55.869Z,16.20
2019-04-05T17:26:25.298Z,16.63
2019-04-05T17:28:54.694Z,15.30
2019-04-05T17:31:24.115Z,19.33
2019-04-05T17:33:53.514Z,19.37
2019-04-05T17:36:22.995Z,19.43
2019-04-05T17:38:52.337Z,18.70
2019-04-05T17:41:21.758Z,17.20
2019-04-05T17:43:51.166Z,20.80
2019-04-05T17:46:20.605Z,24.23
2019-04-05T17:48:51.823Z,19.80
2019-04-05T17:51:21.135Z,20.40
2019-04-05T17:53:50.710Z,19.83
2019-04-05T17:56:20.680Z,23.20
2019-04-05T17:58:50.710Z,22.27
2019-04-05T18:01:20.143Z,24.83
2019-04-05T18:03:49.574Z,24.87
2019-04-05T18:06:18.994Z,23.83
2019-04-05T18:08:48.458Z,22.10
2019-04-05T18:11:17.924Z,24.00
2019-04-05T18:13:47.406Z,23.03
2019-04-05T18:16:16.904Z,25.03
2019-04-05T18:18:46.307Z,25.10
2019-04-05T18:21:15.799Z,27.73
2019-04-05T18:23:45.204Z,25.63
2019-04-05T18:26:14.619Z,27.63
2019-04-05T18:28:44.032Z,25.80
2019-04-05T18:31:13.666Z,27.17
2019-04-05T18:33:43.086Z,28.33
2019-04-05T18:36:12.608Z,24.80
2019-04-05T18:38:42.219Z,28.70
2019-04-05T18:43:33.089Z,26.63
2019-04-05T18:46:02.504Z,27.70
2019-04-05T18:48:31.968Z,32.20
2019-04-05T18:51:01.446Z,25.33
2019-04-05T18:53:37.458Z,29.97
2019-04-05T18:56:01.970Z,29.40
2019-04-05T18:58:31.387Z,27.70
2019-04-05T19:01:00.808Z,27.77
2019-04-05T19:03:30.303Z,25.77
2019-04-05T19:05:59.706Z,25.73
2019-04-05T19:08:39.113Z,27.30
2019-04-05T19:11:00.302Z,26.57
2019-04-05T19:13:29.738Z,27.27
2019-04-05T19:15:59.128Z,27.40
2019-04-05T19:18:28.659Z,26.03
2019-04-05T19:20:58.242Z,27.87
2019-04-05T19:23:27.657Z,27.63
2019-04-05T19:25:57.065Z,27.27
2019-04-05T19:28:26.485Z,29.27
2019-04-05T19:48:35.538Z,32.77
2019-04-05T19:51:05.363Z,30.93
2019-04-05T19:53:34.795Z,33.67
2019-04-05T19:56:04.208Z,29.93
2019-04-05T19:58:33.616Z,29.73
2019-04-05T20:01:03.092Z,33.93
2019-04-05T20:03:32.511Z,32.70
2019-04-05T20:06:01.916Z,32.37
2019-04-05T20:08:31.447Z,35.07
2019-04-05T20:11:00.865Z,34.37
2019-04-05T20:13:30.400Z,35.77
2019-04-05T20:15:59.765Z,37.27
2019-04-05T20:18:29.187Z,34.90
2019-04-05T20:20:58.587Z,36.13
2019-04-05T20:23:28.013Z,36.80
2019-04-05T20:25:57.440Z,32.37
2019-04-05T20:28:26.880Z,35.47
2019-04-05T20:30:56.359Z,36.53
2019-04-05T20:33:25.791Z,36.37
2019-04-05T20:35:55.254Z,36.27
2019-04-05T20:38:24.674Z,36.13
2019-04-05T20:40:54.077Z,38.03
2019-04-05T20:43:23.503Z,37.93
2019-04-05T20:45:52.904Z,35.43
2019-04-05T20:48:22.336Z,39.37
2019-04-05T20:50:51.749Z,33.60
2019-04-05T20:53:21.199Z,35.27
2019-04-05T20:55:50.605Z,38.60
2019-04-05T20:58:20.088Z,33.37
2019-04-05T21:00:49.587Z,30.13
2019-04-05T21:03:19.098Z,35.57
2019-04-05T21:05:48.602Z,36.07
2019-04-05T21:08:17.998Z,32.20
2019-04-05T21:10:47.415Z,33.13
2019-04-05T21:13:16.900Z,35.77
2019-04-05T21:15:46.337Z,31.53
2019-04-05T21:18:15.730Z,32.67
2019-04-05T21:20:45.494Z,36.00
2019-04-05T21:23:14.892Z,32.10
2019-04-05T21:25:44.368Z,30.20
2019-04-05T21:28:13.803Z,33.87
2019-04-05T21:30:43.196Z,29.70
2019-04-05T21:33:12.609Z,30.27
2019-04-05T21:35:42.044Z,33.30
2019-04-05T21:38:11.448Z,31.17
2019-04-05T21:40:40.886Z,28.57
2019-04-05T21:43:10.294Z,31.63
2019-04-05T21:45:39.718Z,29.80
2019-04-05T21:48:09.119Z,33.93
2019-04-05T21:50:38.560Z,30.70
2019-04-05T21:53:07.960Z,31.87
2019-04-05T21:55:37.407Z,34.77
2019-04-05T21:58:06.795Z,36.90
2019-04-05T22:00:40.482Z,34.50
2019-04-05T22:03:09.897Z,32.57
2019-04-05T22:05:39.307Z,34.17
2019-04-05T22:08:08.715Z,35.33
2019-04-05T22:10:38.173Z,37.07
2019-04-05T22:13:07.545Z,38.47
2019-04-05T22:15:36.974Z,36.87
2019-04-05T22:18:06.366Z,37.43
2019-04-05T22:20:35.800Z,38.17
2019-04-05T22:23:05.201Z,41.93
2019-04-05T22:25:34.623Z,38.03
2019-04-05T22:28:04.415Z,39.03
2019-04-05T22:30:33.849Z,38.47
2019-04-05T22:33:03.423Z,38.13
2019-04-05T22:35:32.841Z,43.03
2019-04-05T22:38:02.316Z,38.20
2019-04-05T22:40:32.047Z,39.47
2019-04-05T22:43:01.447Z,37.00
2019-04-05T22:45:30.902Z,37.80
2019-04-05T22:48:00.305Z,39.47
2019-04-05T22:50:29.969Z,39.80
2019-04-05T22:52:59.439Z,38.10
2019-04-05T22:55:28.857Z,37.17
2019-04-05T22:57:58.252Z,40.83
2019-04-05T23:00:27.700Z,38.07
2019-04-05T23:02:57.072Z,40.00
2019-04-05T23:05:26.503Z,37.77
2019-04-05T23:07:55.892Z,41.20
2019-04-05T23:10:25.324Z,43.30
2019-04-05T23:12:54.726Z,40.67
2019-04-05T23:15:24.148Z,40.90
2019-04-05T23:17:53.548Z,40.53
2019-04-05T23:20:23.050Z,44.73
2019-04-05T23:22:52.448Z,40.53
2019-04-05T23:25:22.514Z,42.33
2019-04-05T23:27:51.968Z,46.13
2019-04-05T23:30:22.832Z,47.80
2019-04-05T23:32:52.230Z,48.77
2019-04-05T23:35:21.665Z,46.03
2019-04-05T23:37:51.133Z,45.43
2019-04-05T23:40:20.550Z,47.33
2019-04-05T23:42:49.952Z,48.33
2019-04-05T23:45:19.461Z,51.47
2019-04-05T23:47:48.860Z,46.53
2019-04-05T23:50:18.282Z,50.90
2019-04-05T23:52:47.689Z,48.00
2019-04-05T23:55:17.137Z,44.93
2019-04-05T23:57:46.561Z,52.33
